Jpo Gemini — A8VF7 — position and weather

sailwx.info

Track history (hours):
 
Tides and Currents Weather Stations Pressure Air Temp Water Temp Dewpoint Dewpoint Depression Visibility Wind Speed Wind Dir Waves Ship Positions

Jpo Gemini

Last reported at 2018-Jan-10 12:00 UTC. Time now 2018-Jan-20 21:18 UTC.
Position S 07°48' E 011°48'.
Warning: this ship's position is 10 days out of date.

; draft 9.9 m.

Type: Cargo ship. MMSI: 636091995.

Wind from 140 at 10 knots

Barometer 1012.0 mb
Air temperature 28.0 ° C
Visibility: greater than 5.4 NM
Dewpoint 25.2 ° C
Water temperature 30.0 ° C

Date/timePositionNaut miles runAvg speedWind from/ knotsBaromVisibWave heightAir tempDewpointWater temp
2018-Jan-10 12:00S 07°48' E 011°48'13613.6 140 / 101012.0 5.4 28.025.230.0
2018-Jan-10 02:00S 06°42' E 009°48'38915.0 140 / 101013.010.8 26.523.631.0
2018-Jan-09 00:00S 03°24' E 004°12'51914.4 130 / 51014.0 5.4 26.023.130.0
2018-Jan-07 12:00N 00°54' W 003°18'16713.9 130 / 111013.0 5.4 28.023.730.0
2018-Jan-07 00:00N 02°18' W 005°42'33615.3 220 / 101013.0 5.4 26.023.131.0
2018-Jan-06 02:00N 05°12' W 010°30'30014.9 290 / 101014.0 2.2 27.024.132.0
2018-Jan-05 05:54N 08°04' W 014°38'614.9
2018-Jan-05 05:29N 08°08' W 014°42'715.2
2018-Jan-05 05:00N 08°12' W 014°48'815.4
2018-Jan-05 04:30N 08°18' W 014°53'815.1
2018-Jan-05 04:00N 08°23' W 014°59'815.3
2018-Jan-05 03:30N 08°29' W 015°04'815.5
2018-Jan-05 03:00N 08°35' W 015°09'815.2
2018-Jan-05 02:28N 08°40' W 015°15'715.0
2018-Jan-05 02:00N 08°45' W 015°20'714.8
2018-Jan-05 01:30N 08°50' W 015°26'714.8
2018-Jan-05 01:00N 08°56' W 015°31'814.9
2018-Jan-05 00:28N 09°02' W 015°36'714.9
2018-Jan-05 00:00N 09°07' W 015°41'5288.8
2018-Jan-05 00:00N 09°06' W 015°36'1123.7 200 / 111016.0 5.4 26.023.830.0
2018-Jan-04 23:30N 09°12' W 015°46'814.8
2018-Jan-04 22:57N 09°18' W 015°51'714.6
2018-Jan-04 22:27N 09°24' W 015°56'714.8
2018-Jan-04 22:00N 09°29' W 016°01'714.2
2018-Jan-04 21:30N 09°34' W 016°05'714.4
2018-Jan-04 21:00N 09°39' W 016°10'714.2
2018-Jan-04 20:30N 09°45' W 016°15'714.5
2018-Jan-04 20:00N 09°50' W 016°20'714.5
2018-Jan-04 19:30N 09°55' W 016°26'714.4
2018-Jan-04 19:00N 10°00' W 016°31'714.8
2018-Jan-04 18:30N 10°06' W 016°36'714.6
2018-Jan-04 18:00N 10°11' W 016°41'714.2
2018-Jan-04 17:30N 10°16' W 016°46'714.7
2018-Jan-04 17:00N 10°22' W 016°50'714.7
2018-Jan-04 16:30N 10°28' W 016°54'714.7
2018-Jan-04 16:00N 10°34' W 016°58'714.5
2018-Jan-04 15:30N 10°40' W 017°02'1614.0
2018-Jan-04 14:23N 10°55' W 017°09'514.0
2018-Jan-04 14:00N 10°59' W 017°12'713.8
2018-Jan-04 13:30N 11°06' W 017°15'1014.0
2018-Jan-04 12:47N 11°15' W 017°19'414.1
2018-Jan-04 12:30N 11°18' W 017°21'1114.1
2018-Jan-04 11:43N 11°28' W 017°25'414.0
2018-Jan-04 11:25N 11°32' W 017°27'  
2018-Jan-02 07:03N 23°58' W 016°31'114.7
2018-Jan-02 07:00N 23°59' W 016°31'714.8
2018-Jan-02 06:30N 24°05' W 016°27'814.8
2018-Jan-02 05:58N 24°11' W 016°22'815.1
2018-Jan-02 05:25N 24°18' W 016°17'1415.0
2018-Jan-02 04:30N 24°30' W 016°09'715.0
2018-Jan-02 04:00N 24°36' W 016°05'815.2
2018-Jan-02 03:30N 24°43' W 016°00'9214.8
2018-Jan-01 21:15N 26°01' W 015°05'415.0
2018-Jan-01 21:00N 26°04' W 015°03'815.1
2018-Jan-01 20:29N 26°10' W 014°58'714.8
2018-Jan-01 20:00N 26°16' W 014°54'1014.8
2018-Jan-01 19:18N 26°25' W 014°47'1114.9
2018-Jan-01 18:34N 26°34' W 014°41'115.0
2018-Jan-01 18:30N 26°35' W 014°40'815.0
2018-Jan-01 17:59N 26°41' W 014°36'7915.1
2018-Jan-01 12:43N 27°49' W 013°49'1214.4
2018-Jan-01 11:55N 27°58' W 013°40'614.5
2018-Jan-01 11:29N 28°03' W 013°36'714.7
2018-Jan-01 11:00N 28°09' W 013°32'914.8
2018-Jan-01 10:26N 28°16' W 013°26'615.0
2018-Jan-01 10:01N 28°21' W 013°22'714.9
2018-Jan-01 09:31N 28°27' W 013°17'1514.5
2018-Jan-01 08:29N 28°39' W 013°07'1014.7
2018-Jan-01 07:48N 28°47' W 013°01'814.7
2018-Jan-01 07:15N 28°54' W 012°56'414.7
2018-Jan-01 07:00N 28°57' W 012°53'1514.7
2018-Jan-01 06:01N 29°09' W 012°44'714.8
2018-Jan-01 05:31N 29°15' W 012°39'815.0
2018-Jan-01 05:01N 29°21' W 012°34'3814.8
2018-Jan-01 02:25N 29°52' W 012°07'1714.5
2018-Jan-01 01:17N 30°06' W 011°57'1114.5
2018-Jan-01 00:30N 30°15' W 011°49'7615.1
2017-Dec-31 19:29N 31°16' W 010°58'715.1
2017-Dec-31 19:01N 31°22' W 010°53'1515.2
2017-Dec-31 18:02N 31°33' W 010°42'015.3
2017-Dec-31 18:01N 31°34' W 010°41'2115.0
2017-Dec-31 16:38N 31°50' W 010°27'214.7
2017-Dec-31 16:30N 31°52' W 010°26'1215.0
2017-Dec-31 15:43N 32°01' W 010°17'513.3
2017-Dec-31 15:21N 32°06' W 010°16'3314.6
2017-Dec-31 13:04N 32°33' W 009°53'114.8
2017-Dec-31 13:00N 32°34' W 009°52'  
Track history (hours):
 
Tides and Currents Weather Stations Pressure Air Temp Water Temp Dewpoint Dewpoint Depression Visibility Wind Speed Wind Dir Waves Ship Positions

Jpo Gemini

Last reported at 2018-Jan-10 12:00 UTC. Time now 2018-Jan-20 21:18 UTC.
Position S 07°48' E 011°48'.
Warning: this ship's position is 10 days out of date.

; draft 9.9 m.

Type: Cargo ship. MMSI: 636091995.

Wind from 140 at 10 knots

Barometer 1012.0 mb
Air temperature 28.0 ° C
Visibility: greater than 5.4 NM
Dewpoint 25.2 ° C
Water temperature 30.0 ° C

Date/timePositionNaut miles runAvg speedWind from/ knotsBaromVisibWave heightAir tempDewpointWater temp
2018-Jan-10 12:00S 07°48' E 011°48'13613.6 140 / 101012.0 5.4 28.025.230.0
2018-Jan-10 02:00S 06°42' E 009°48'38915.0 140 / 101013.010.8 26.523.631.0
2018-Jan-09 00:00S 03°24' E 004°12'51914.4 130 / 51014.0 5.4 26.023.130.0
2018-Jan-07 12:00N 00°54' W 003°18'16713.9 130 / 111013.0 5.4 28.023.730.0
2018-Jan-07 00:00N 02°18' W 005°42'33615.3 220 / 101013.0 5.4 26.023.131.0
2018-Jan-06 02:00N 05°12' W 010°30'30014.9 290 / 101014.0 2.2 27.024.132.0
2018-Jan-05 05:54N 08°04' W 014°38'614.9
2018-Jan-05 05:29N 08°08' W 014°42'715.2
2018-Jan-05 05:00N 08°12' W 014°48'815.4
2018-Jan-05 04:30N 08°18' W 014°53'815.1
2018-Jan-05 04:00N 08°23' W 014°59'815.3
2018-Jan-05 03:30N 08°29' W 015°04'815.5
2018-Jan-05 03:00N 08°35' W 015°09'815.2
2018-Jan-05 02:28N 08°40' W 015°15'715.0
2018-Jan-05 02:00N 08°45' W 015°20'714.8
2018-Jan-05 01:30N 08°50' W 015°26'714.8
2018-Jan-05 01:00N 08°56' W 015°31'814.9
2018-Jan-05 00:28N 09°02' W 015°36'714.9
2018-Jan-05 00:00N 09°07' W 015°41'5288.8
2018-Jan-05 00:00N 09°06' W 015°36'1123.7 200 / 111016.0 5.4 26.023.830.0
2018-Jan-04 23:30N 09°12' W 015°46'814.8
2018-Jan-04 22:57N 09°18' W 015°51'714.6
2018-Jan-04 22:27N 09°24' W 015°56'714.8
2018-Jan-04 22:00N 09°29' W 016°01'714.2
2018-Jan-04 21:30N 09°34' W 016°05'714.4
2018-Jan-04 21:00N 09°39' W 016°10'714.2
2018-Jan-04 20:30N 09°45' W 016°15'714.5
2018-Jan-04 20:00N 09°50' W 016°20'714.5
2018-Jan-04 19:30N 09°55' W 016°26'714.4
2018-Jan-04 19:00N 10°00' W 016°31'714.8
2018-Jan-04 18:30N 10°06' W 016°36'714.6
2018-Jan-04 18:00N 10°11' W 016°41'714.2
2018-Jan-04 17:30N 10°16' W 016°46'714.7
2018-Jan-04 17:00N 10°22' W 016°50'714.7
2018-Jan-04 16:30N 10°28' W 016°54'714.7
2018-Jan-04 16:00N 10°34' W 016°58'714.5
2018-Jan-04 15:30N 10°40' W 017°02'1614.0
2018-Jan-04 14:23N 10°55' W 017°09'514.0
2018-Jan-04 14:00N 10°59' W 017°12'713.8
2018-Jan-04 13:30N 11°06' W 017°15'1014.0
2018-Jan-04 12:47N 11°15' W 017°19'414.1
2018-Jan-04 12:30N 11°18' W 017°21'1114.1
2018-Jan-04 11:43N 11°28' W 017°25'414.0
2018-Jan-04 11:25N 11°32' W 017°27'  
2018-Jan-02 07:03N 23°58' W 016°31'114.7
2018-Jan-02 07:00N 23°59' W 016°31'714.8
2018-Jan-02 06:30N 24°05' W 016°27'814.8
2018-Jan-02 05:58N 24°11' W 016°22'815.1
2018-Jan-02 05:25N 24°18' W 016°17'1415.0
2018-Jan-02 04:30N 24°30' W 016°09'715.0
2018-Jan-02 04:00N 24°36' W 016°05'815.2
2018-Jan-02 03:30N 24°43' W 016°00'9214.8
2018-Jan-01 21:15N 26°01' W 015°05'415.0
2018-Jan-01 21:00N 26°04' W 015°03'815.1
2018-Jan-01 20:29N 26°10' W 014°58'714.8
2018-Jan-01 20:00N 26°16' W 014°54'1014.8
2018-Jan-01 19:18N 26°25' W 014°47'1114.9
2018-Jan-01 18:34N 26°34' W 014°41'115.0
2018-Jan-01 18:30N 26°35' W 014°40'815.0
2018-Jan-01 17:59N 26°41' W 014°36'7915.1
2018-Jan-01 12:43N 27°49' W 013°49'1214.4
2018-Jan-01 11:55N 27°58' W 013°40'614.5
2018-Jan-01 11:29N 28°03' W 013°36'714.7
2018-Jan-01 11:00N 28°09' W 013°32'914.8
2018-Jan-01 10:26N 28°16' W 013°26'615.0
2018-Jan-01 10:01N 28°21' W 013°22'714.9
2018-Jan-01 09:31N 28°27' W 013°17'1514.5
2018-Jan-01 08:29N 28°39' W 013°07'1014.7
2018-Jan-01 07:48N 28°47' W 013°01'814.7
2018-Jan-01 07:15N 28°54' W 012°56'414.7
2018-Jan-01 07:00N 28°57' W 012°53'1514.7
2018-Jan-01 06:01N 29°09' W 012°44'714.8
2018-Jan-01 05:31N 29°15' W 012°39'815.0
2018-Jan-01 05:01N 29°21' W 012°34'3814.8
2018-Jan-01 02:25N 29°52' W 012°07'1714.5
2018-Jan-01 01:17N 30°06' W 011°57'1114.5
2018-Jan-01 00:30N 30°15' W 011°49'7615.1
2017-Dec-31 19:29N 31°16' W 010°58'715.1
2017-Dec-31 19:01N 31°22' W 010°53'1515.2
2017-Dec-31 18:02N 31°33' W 010°42'015.3
2017-Dec-31 18:01N 31°34' W 010°41'2115.0
2017-Dec-31 16:38N 31°50' W 010°27'214.7
2017-Dec-31 16:30N 31°52' W 010°26'1215.0
2017-Dec-31 15:43N 32°01' W 010°17'513.3
2017-Dec-31 15:21N 32°06' W 010°16'3314.6
2017-Dec-31 13:04N 32°33' W 009°53'114.8
2017-Dec-31 13:00N 32°34' W 009°52'  

Dump ship's entire track history